Time;durP1;ratioP1;P1;durP2;ratioP2;P2;SDS_P1;SDS_P2;PMS_P1;PMS_P2;Temp;Humidity;BMP_temperature;BMP_pressure;BME280_temperature;BME280_humidity;BME280_pressure;Samples;Min_cycle;Max_cycle;Signal;HPM_P1;HPM_P2
2022/05/15 00:01:35;;;;;;;1.70;0.40;;;;;;;10.88;100.00;99376.46;1754399;81;22216;-51
2022/05/15 00:04:01;;;;;;;2.93;0.40;;;;;;;10.86;100.00;99383.27;1757417;79;21026;-51
2022/05/15 00:06:28;;;;;;;1.10;0.40;;;;;;;10.85;100.00;99382.88;1753809;81;21100;-52
2022/05/15 00:08:54;;;;;;;0.80;0.50;;;;;;;10.83;100.00;99378.52;1757138;81;21680;-51
2022/05/15 00:11:22;;;;;;;1.93;0.40;;;;;;;10.80;100.00;99377.36;1759164;81;21420;-51
2022/05/15 00:13:49;;;;;;;1.57;0.40;;;;;;;10.77;100.00;99381.08;1757812;81;21041;-51
2022/05/15 00:16:16;;;;;;;2.13;0.50;;;;;;;10.74;100.00;99379.89;1755994;80;21538;-51
2022/05/15 00:18:43;;;;;;;4.43;0.47;;;;;;;10.71;100.00;99376.52;1760859;80;20911;-52
2022/05/15 00:21:10;;;;;;;2.43;0.40;;;;;;;10.67;100.00;99380.31;1758155;81;21598;-51
2022/05/15 00:23:37;;;;;;;2.70;0.40;;;;;;;10.61;100.00;99375.67;1755612;81;21063;-51
2022/05/15 00:26:04;;;;;;;6.93;0.60;;;;;;;10.58;100.00;99378.52;1756719;81;21053;-52
2022/05/15 00:28:30;;;;;;;0.60;0.37;;;;;;;10.54;100.00;99375.61;1754654;80;21022;-51
2022/05/15 00:30:57;;;;;;;2.87;0.40;;;;;;;10.51;100.00;99377.59;1756516;80;21051;-52
2022/05/15 00:33:23;;;;;;;5.43;0.40;;;;;;;10.47;100.00;99384.07;1760685;79;21108;-50
2022/05/15 00:35:52;;;;;;;2.33;0.50;;;;;;;10.46;100.00;99381.02;1755438;81;22166;-50
2022/05/15 00:38:19;;;;;;;2.50;0.40;;;;;;;10.45;100.00;99370.72;1758881;81;21049;-50
2022/05/15 00:40:46;;;;;;;3.43;0.47;;;;;;;10.45;100.00;99372.07;1759178;81;22282;-50
2022/05/15 00:43:42;;;;;;;2.67;0.47;;;;;;;10.44;100.00;99371.67;1757325;79;21585;-50
2022/05/15 00:46:26;;;;;;;2.73;0.50;;;;;;;10.43;100.00;99379.83;1752938;81;21823;-51
2022/05/15 00:48:53;;;;;;;0.80;0.40;;;;;;;10.43;100.00;99373.09;1752834;80;21042;-50
2022/05/15 00:51:27;;;;;;;5.70;0.50;;;;;;;10.40;100.00;99374.12;1750722;81;21156;-50
2022/05/15 00:54:16;;;;;;;1.60;0.40;;;;;;;10.38;100.00;99374.67;1749804;79;27591;-50
2022/05/15 00:57:08;;;;;;;4.63;0.60;;;;;;;10.35;100.00;99372.64;1750172;80;22213;-50
2022/05/15 00:59:55;;;;;;;1.30;0.43;;;;;;;10.31;100.00;99368.36;1748492;80;21573;-50
2022/05/15 01:02:22;;;;;;;1.63;0.60;;;;;;;10.24;100.00;99372.72;1746247;80;21049;-53
2022/05/15 01:04:50;;;;;;;1.67;0.50;;;;;;;10.17;100.00;99367.28;1750703;81;20987;-50
2022/05/15 01:07:17;;;;;;;2.00;0.40;;;;;;;10.14;100.00;99369.21;1752988;80;20957;-50
2022/05/15 01:09:43;;;;;;;1.63;0.40;;;;;;;10.11;100.00;99366.23;1749969;79;21180;-50
2022/05/15 01:12:12;;;;;;;2.10;0.40;;;;;;;10.12;100.00;99369.80;1750504;79;21469;-48
2022/05/15 01:14:42;;;;;;;2.03;0.43;;;;;;;10.12;100.00;99370.63;1754684;80;21516;-49
2022/05/15 01:17:09;;;;;;;2.70;0.60;;;;;;;10.14;100.00;99370.56;1711104;80;20872;-48
2022/05/15 01:19:39;;;;;;;1.97;0.40;;;;;;;10.14;100.00;99366.05;1753969;81;21776;-48
2022/05/15 01:22:06;;;;;;;2.60;0.50;;;;;;;10.17;100.00;99367.72;1750088;81;21101;-48
2022/05/15 01:24:32;;;;;;;0.90;0.50;;;;;;;10.18;100.00;99361.42;1749352;81;21478;-47
2022/05/15 01:27:06;;;;;;;1.60;0.40;;;;;;;10.18;100.00;99362.77;1747567;81;20970;-47
2022/05/15 01:29:35;;;;;;;0.83;0.43;;;;;;;10.18;100.00;99359.61;1748198;81;20970;-48
2022/05/15 01:32:02;;;;;;;0.83;0.40;;;;;;;10.17;100.00;99358.30;1752177;80;20915;-48
2022/05/15 01:34:30;;;;;;;1.30;0.50;;;;;;;10.16;100.00;99357.91;1741033;81;20908;-48
2022/05/15 01:36:59;;;;;;;2.03;0.40;;;;;;;10.11;100.00;99354.13;1748650;79;21045;-48
2022/05/15 01:39:27;;;;;;;4.37;0.40;;;;;;;10.07;100.00;99353.02;1748369;81;21355;-47
2022/05/15 01:41:53;;;;;;;1.33;0.40;;;;;;;10.04;100.00;99351.81;1744953;81;20911;-48
2022/05/15 01:44:20;;;;;;;2.27;0.40;;;;;;;10.00;100.00;99350.25;1752077;80;20879;-50
2022/05/15 01:46:48;;;;;;;1.03;0.40;;;;;;;9.99;100.00;99356.58;1753566;81;21041;-49
2022/05/15 01:49:16;;;;;;;1.67;0.50;;;;;;;9.98;100.00;99350.33;1718700;81;21173;-48
2022/05/15 01:51:42;;;;;;;2.17;0.67;;;;;;;9.98;100.00;99345.42;1748750;81;21576;-49
2022/05/15 01:54:09;;;;;;;3.00;0.50;;;;;;;9.96;100.00;99342.80;1754998;80;20931;-48
2022/05/15 01:56:36;;;;;;;2.63;0.50;;;;;;;9.95;100.00;99337.53;1744885;81;21434;-48
2022/05/15 01:59:03;;;;;;;2.17;0.50;;;;;;;9.94;100.00;99335.80;1746868;81;20917;-48
2022/05/15 02:01:31;;;;;;;2.63;0.57;;;;;;;9.92;100.00;99333.66;1750116;79;21117;-48
2022/05/15 02:03:58;;;;;;;0.70;0.50;;;;;;;9.90;100.00;99340.45;1745769;81;20907;-46
2022/05/15 02:06:28;;;;;;;1.23;0.50;;;;;;;9.88;100.00;99332.93;1747023;81;20934;-46
2022/05/15 02:08:55;;;;;;;1.53;0.40;;;;;;;9.87;100.00;99335.22;1752275;79;20947;-50
2022/05/15 02:11:22;;;;;;;1.00;0.40;;;;;;;9.86;100.00;99337.54;1741998;81;20912;-45
2022/05/15 02:13:48;;;;;;;2.00;0.50;;;;;;;9.85;100.00;99332.64;1749957;81;21701;-48
2022/05/15 02:16:15;;;;;;;1.83;0.40;;;;;;;9.83;100.00;99335.88;1753363;80;21390;-47
2022/05/15 02:18:42;;;;;;;1.33;0.80;;;;;;;9.84;100.00;99333.58;1690398;83;20904;-46
2022/05/15 02:21:08;;;;;;;6.83;0.70;;;;;;;9.84;100.00;99322.83;1697481;83;20887;-48
2022/05/15 02:23:35;;;;;;;2.80;0.60;;;;;;;9.84;100.00;99320.14;1698663;83;21078;-46
2022/05/15 02:26:02;;;;;;;1.40;0.60;;;;;;;9.84;100.00;99318.80;1703667;83;21586;-45
2022/05/15 02:28:28;;;;;;;0.83;0.63;;;;;;;9.83;100.00;99310.34;1750908;81;21066;-46
2022/05/15 02:30:55;;;;;;;1.10;0.60;;;;;;;9.82;100.00;99316.66;1751911;79;21098;-47
2022/05/15 02:33:22;;;;;;;3.73;0.60;;;;;;;9.82;100.00;99322.50;1744115;79;21066;-45
2022/05/15 02:35:48;;;;;;;0.90;0.50;;;;;;;9.82;100.00;99330.09;1748059;81;21030;-46
2022/05/15 02:38:15;;;;;;;2.00;0.60;;;;;;;9.81;100.00;99347.17;1741980;81;22279;-46
2022/05/15 02:40:42;;;;;;;2.97;0.60;;;;;;;9.81;100.00;99344.48;1746272;81;21447;-47
2022/05/15 02:43:09;;;;;;;1.93;0.60;;;;;;;9.80;100.00;99344.08;1750837;81;21043;-46
2022/05/15 02:45:36;;;;;;;2.50;0.60;;;;;;;9.81;100.00;99339.58;1753495;81;21082;-46
2022/05/15 02:48:03;;;;;;;1.07;0.60;;;;;;;9.82;100.00;99338.16;1749659;81;21016;-47
2022/05/15 02:53:15;;;;;;;;;;;;;;;9.86;100.00;99354.55;1756503;81;21029;-47
2022/05/15 02:55:41;;;;;;;2.70;0.70;;;;;;;9.87;100.00;99353.56;1752424;81;20200;-46
2022/05/15 02:58:08;;;;;;;3.17;0.70;;;;;;;9.88;100.00;99363.84;1751412;81;21087;-49
2022/05/15 03:00:34;;;;;;;6.60;0.70;;;;;;;9.88;100.00;99360.69;1749701;81;21066;-48
2022/05/15 03:03:01;;;;;;;6.07;0.97;;;;;;;9.90;100.00;99364.64;1751664;80;21961;-46
2022/05/15 03:05:27;;;;;;;1.60;0.70;;;;;;;9.90;100.00;99355.70;1724296;81;21054;-46
2022/05/15 03:07:54;;;;;;;2.90;0.60;;;;;;;9.91;100.00;99366.39;1750982;81;21078;-46
2022/05/15 03:10:22;;;;;;;2.00;0.80;;;;;;;9.94;100.00;99372.09;1742831;81;21144;-45
2022/05/15 03:12:50;;;;;;;1.70;0.70;;;;;;;9.97;100.00;99371.91;1746452;81;21498;-48
2022/05/15 03:15:19;;;;;;;2.50;0.63;;;;;;;10.02;100.00;99373.91;1746533;81;21124;-50
2022/05/15 03:17:45;;;;;;;6.63;0.97;;;;;;;10.07;100.00;99372.70;1746086;81;21037;-50
2022/05/15 03:20:15;;;;;;;3.83;0.80;;;;;;;10.12;100.00;99366.59;1736462;81;21106;-47
2022/05/15 03:22:41;;;;;;;3.17;0.70;;;;;;;10.17;100.00;99363.25;1742536;81;21050;-46
2022/05/15 03:25:08;;;;;;;3.10;0.73;;;;;;;10.21;100.00;99372.00;1750573;81;21125;-47
2022/05/15 03:27:36;;;;;;;2.53;0.80;;;;;;;10.24;100.00;99370.51;1747614;81;21392;-48
2022/05/15 03:30:05;;;;;;;3.13;0.53;;;;;;;10.26;100.00;99363.23;1747389;80;20999;-53
2022/05/15 03:32:33;;;;;;;2.70;0.60;;;;;;;10.30;100.00;99361.23;1752026;80;21072;-49
2022/05/15 03:35:00;;;;;;;3.10;0.60;;;;;;;10.31;100.00;99369.23;1748471;81;21102;-46
2022/05/15 03:37:27;;;;;;;2.00;0.60;;;;;;;10.35;100.00;99368.60;1749456;81;20903;-49
2022/05/15 03:39:54;;;;;;;1.77;0.70;;;;;;;10.38;100.00;99370.63;1749788;79;21189;-51
2022/05/15 03:42:21;;;;;;;2.53;1.00;;;;;;;10.44;100.00;99362.73;1751277;81;21417;-49
2022/05/15 03:44:48;;;;;;;1.73;0.80;;;;;;;10.48;100.00;99371.89;1743010;81;22299;-52
2022/05/15 03:47:14;;;;;;;3.60;0.80;;;;;;;10.52;100.00;99373.95;1748926;81;21122;-51
2022/05/15 03:49:42;;;;;;;2.37;0.80;;;;;;;10.53;100.00;99373.00;1750678;81;21539;-50
2022/05/15 03:52:09;;;;;;;1.57;0.73;;;;;;;10.54;100.00;99370.23;1749277;80;21182;-47
2022/05/15 03:54:35;;;;;;;2.93;0.70;;;;;;;10.56;100.00;99370.13;1751977;80;21538;-48
2022/05/15 03:57:03;;;;;;;4.23;0.60;;;;;;;10.57;100.00;99375.91;1754749;81;21015;-51
2022/05/15 03:59:33;;;;;;;2.17;0.50;;;;;;;10.58;100.00;99374.48;1748348;81;20998;-47
2022/05/15 04:02:00;;;;;;;3.95;0.50;;;;;;;10.60;100.00;99378.44;1748170;81;21485;-47
2022/05/15 04:04:27;;;;;;;3.53;0.60;;;;;;;10.61;100.00;99380.19;1752689;81;21528;-51
2022/05/15 04:06:54;;;;;;;2.27;0.67;;;;;;;10.64;100.00;99382.69;1662223;83;21973;-50
2022/05/15 04:09:21;;;;;;;3.33;0.80;;;;;;;10.68;100.00;99369.94;1751316;81;20915;-47
2022/05/15 04:11:48;;;;;;;1.93;0.60;;;;;;;10.70;100.00;99376.99;1751894;80;20942;-46
2022/05/15 04:14:15;;;;;;;3.47;0.93;;;;;;;10.72;100.00;99380.95;1751791;80;20946;-47
2022/05/15 04:16:43;;;;;;;2.65;0.60;;;;;;;10.71;100.00;99381.43;1758318;81;21737;-49
2022/05/15 04:19:09;;;;;;;1.80;0.60;;;;;;;10.70;100.00;99381.03;1756607;81;21441;-51
2022/05/15 04:21:40;;;;;;;2.53;0.60;;;;;;;10.68;100.00;99386.97;1748859;81;21088;-51
2022/05/15 04:24:10;;;;;;;2.60;0.60;;;;;;;10.67;100.00;99387.05;1752183;81;21462;-50
2022/05/15 04:26:37;;;;;;;3.20;0.50;;;;;;;10.67;100.00;99387.91;1684995;83;21043;-49
2022/05/15 04:29:04;;;;;;;2.60;0.60;;;;;;;10.71;100.00;99394.89;1751209;81;21115;-49
2022/05/15 04:31:31;;;;;;;2.40;0.70;;;;;;;10.76;100.00;99386.07;1753351;80;20979;-50
2022/05/15 04:34:00;;;;;;;3.67;0.68;;;;;;;10.82;100.00;99380.34;1754227;81;20868;-50
2022/05/15 04:36:25;;;;;;;1.67;0.70;;;;;;;10.88;100.00;99373.30;1751311;80;20970;-51
2022/05/15 04:38:52;;;;;;;2.52;0.80;;;;;;;10.92;100.00;99374.84;1753518;81;21386;-48
2022/05/15 04:41:19;;;;;;;3.62;0.62;;;;;;;10.97;100.00;99372.75;1752519;80;21082;-50
2022/05/15 04:43:46;;;;;;;2.33;0.70;;;;;;;11.00;100.00;99363.64;1688524;83;20919;-48
2022/05/15 04:46:13;;;;;;;1.02;0.60;;;;;;;11.03;100.00;99368.00;1752706;81;20955;-49
2022/05/15 04:48:39;;;;;;;2.15;0.50;;;;;;;11.05;100.00;99368.31;1763948;81;20943;-49
2022/05/15 04:51:05;;;;;;;3.72;0.50;;;;;;;11.08;100.00;99369.46;1759564;81;20929;-49
2022/05/15 04:53:32;;;;;;;2.08;0.60;;;;;;;11.12;100.00;99371.05;1759053;80;21097;-52
2022/05/15 04:55:59;;;;;;;1.50;0.53;;;;;;;11.17;100.00;99371.64;1758008;81;20934;-49
2022/05/15 04:58:27;;;;;;;1.75;0.50;;;;;;;11.24;100.00;99373.03;1759912;79;20991;-51
2022/05/15 05:00:54;;;;;;;1.25;0.60;;;;;;;11.30;100.00;99370.01;1757425;79;20954;-51
2022/05/15 05:03:20;;;;;;;2.05;0.57;;;;;;;11.38;100.00;99379.86;1760742;79;21389;-51
2022/05/15 05:05:47;;;;;;;3.30;0.60;;;;;;;11.42;100.00;99373.80;1759539;81;21094;-51
2022/05/15 05:08:14;;;;;;;2.12;0.93;;;;;;;11.47;100.00;99380.30;1761347;81;20891;-51
2022/05/15 05:10:41;;;;;;;1.95;0.60;;;;;;;11.51;100.00;99388.58;1754889;79;21112;-50
2022/05/15 05:13:08;;;;;;;5.90;0.60;;;;;;;11.55;100.00;99379.37;1758198;80;21113;-49
2022/05/15 05:15:36;;;;;;;2.85;0.60;;;;;;;11.62;100.00;99390.17;1752595;81;21022;-51
2022/05/15 05:18:02;;;;;;;4.83;0.50;;;;;;;11.72;100.00;99385.52;1752439;79;22219;-51
2022/05/15 05:20:29;;;;;;;2.25;0.60;;;;;;;11.86;100.00;99384.72;1762033;79;21037;-52
2022/05/15 05:22:55;;;;;;;4.28;0.40;;;;;;;12.00;100.00;99380.72;1715251;82;21473;-50
2022/05/15 05:25:21;;;;;;;4.62;0.50;;;;;;;12.13;100.00;99379.03;1697097;83;21094;-52
2022/05/15 05:27:48;;;;;;;3.70;0.98;;;;;;;12.27;100.00;99380.01;1718131;82;21206;-50
2022/05/15 05:30:18;;;;;;;1.30;0.68;;;;;;;12.40;100.00;99377.84;1700043;83;22782;-52
2022/05/15 05:32:45;;;;;;;1.30;0.45;;;;;;;12.51;100.00;99386.12;1703618;82;21053;-54
2022/05/15 05:35:13;;;;;;;1.32;0.60;;;;;;;12.60;100.00;99383.33;1702973;82;21168;-52
2022/05/15 05:37:39;;;;;;;1.35;0.50;;;;;;;12.65;100.00;99379.88;1690943;82;21515;-54
2022/05/15 05:40:07;;;;;;;2.35;0.57;;;;;;;12.71;100.00;99386.72;1688447;83;21118;-53
2022/05/15 05:42:35;;;;;;;2.65;0.50;;;;;;;12.74;100.00;99383.84;1721764;82;21286;-52
2022/05/15 05:45:03;;;;;;;2.95;0.60;;;;;;;12.74;100.00;99386.05;1694474;82;21551;-53
2022/05/15 05:47:30;;;;;;;3.17;0.88;;;;;;;12.75;100.00;99387.80;1694171;83;21052;-52
2022/05/15 05:49:57;;;;;;;1.00;0.50;;;;;;;12.72;100.00;99385.28;1698593;83;21429;-54
2022/05/15 05:52:24;;;;;;;1.77;0.50;;;;;;;12.70;100.00;99376.40;1698589;83;21526;-54
2022/05/15 05:54:51;;;;;;;3.47;0.50;;;;;;;12.67;100.00;99386.06;1703454;82;21773;-51
2022/05/15 05:57:17;;;;;;;1.20;0.57;;;;;;;12.69;100.00;99391.34;1757932;81;21014;-54
2022/05/15 05:59:43;;;;;;;2.65;0.60;;;;;;;12.72;100.00;99385.76;1755567;79;21600;-54
2022/05/15 06:02:10;;;;;;;2.92;0.60;;;;;;;12.79;100.00;99384.40;1691332;83;21058;-53
2022/05/15 06:04:41;;;;;;;2.77;0.78;;;;;;;12.83;100.00;99387.31;1689829;83;21050;-53
2022/05/15 06:07:12;;;;;;;10.10;0.80;;;;;;;12.87;100.00;99389.70;1701109;82;21114;-52
2022/05/15 06:09:40;;;;;;;5.42;0.72;;;;;;;12.91;100.00;99389.05;1697401;82;20987;-52
2022/05/15 06:12:07;;;;;;;2.58;0.70;;;;;;;12.90;100.00;99391.36;1754042;81;20935;-51
2022/05/15 06:14:33;;;;;;;9.05;0.53;;;;;;;12.91;100.00;99395.80;1758030;80;21368;-52
2022/05/15 06:17:00;;;;;;;8.30;0.60;;;;;;;12.92;100.00;99400.23;1752066;81;21078;-52
2022/05/15 06:19:26;;;;;;;2.80;0.60;;;;;;;12.93;100.00;99394.36;1750190;81;21050;-54
2022/05/15 06:21:54;;;;;;;2.50;0.50;;;;;;;12.96;100.00;99391.44;1752067;81;21416;-51
2022/05/15 06:24:21;;;;;;;5.55;0.75;;;;;;;12.99;100.00;99390.77;1753498;81;21528;-50
2022/05/15 06:26:47;;;;;;;4.50;0.60;;;;;;;13.04;100.00;99389.11;1687759;84;21071;-52
2022/05/15 06:29:14;;;;;;;4.00;0.50;;;;;;;13.08;100.00;99387.48;1698779;82;20927;-53
2022/05/15 06:31:40;;;;;;;2.12;0.60;;;;;;;13.12;100.00;99388.14;1697529;83;22221;-49
2022/05/15 06:34:06;;;;;;;4.00;0.70;;;;;;;13.16;100.00;99380.27;1689822;83;21057;-53
2022/05/15 06:36:33;;;;;;;5.17;0.70;;;;;;;13.18;100.00;99376.98;1696626;83;21125;-52
2022/05/15 06:38:59;;;;;;;2.75;0.50;;;;;;;13.22;100.00;99375.80;1698942;83;21141;-51
2022/05/15 06:41:26;;;;;;;1.30;0.45;;;;;;;13.28;100.00;99374.05;1696565;82;21142;-50
2022/05/15 06:43:52;;;;;;;2.37;0.50;;;;;;;13.35;100.00;99374.05;1702757;82;21100;-51
2022/05/15 06:46:18;;;;;;;4.35;0.60;;;;;;;13.42;100.00;99365.92;1692115;83;21170;-49
2022/05/15 06:48:45;;;;;;;4.08;0.50;;;;;;;13.48;100.00;99359.23;1710054;82;21123;-52
2022/05/15 06:51:16;;;;;;;0.80;0.50;;;;;;;13.56;100.00;99361.81;1700577;82;21152;-51
2022/05/15 06:53:41;;;;;;;1.32;0.40;;;;;;;13.65;100.00;99363.03;1711038;82;21108;-51
2022/05/15 06:58:52;;;;;;;1.20;0.40;;;;;;;13.81;100.00;99355.62;1710864;83;21374;-47
2022/05/15 07:01:18;;;;;;;2.90;0.40;;;;;;;13.94;100.00;99348.91;1715752;82;20978;-51
2022/05/15 07:03:45;;;;;;;2.37;0.65;;;;;;;14.03;100.00;99351.81;1705969;82;21152;-53
2022/05/15 07:06:11;;;;;;;1.45;0.40;;;;;;;14.15;100.00;99346.55;1705682;83;21152;-51
2022/05/15 07:08:39;;;;;;;1.95;0.40;;;;;;;14.26;100.00;99350.25;1652124;85;21174;-53
2022/05/15 07:11:05;;;;;;;1.30;0.40;;;;;;;14.38;100.00;99337.67;1705614;82;21049;-50
2022/05/15 07:13:32;;;;;;;1.77;0.30;;;;;;;14.49;100.00;99338.31;1694570;83;22248;-48
2022/05/15 07:15:59;;;;;;;1.32;0.40;;;;;;;14.55;100.00;99332.45;1697326;84;20963;-50
2022/05/15 07:18:26;;;;;;;4.50;0.35;;;;;;;14.61;100.00;99336.97;1693061;84;20967;-53
2022/05/15 07:20:52;;;;;;;3.08;0.30;;;;;;;14.65;100.00;99330.83;1714551;82;21125;-53
2022/05/15 07:23:19;;;;;;;1.67;0.50;;;;;;;14.66;100.00;99328.02;1654283;85;21371;-53
2022/05/15 07:25:46;;;;;;;2.90;0.50;;;;;;;14.67;100.00;99329.75;1709893;82;20954;-53
2022/05/15 07:28:13;;;;;;;1.00;0.40;;;;;;;14.72;100.00;99331.63;1712030;82;21001;-54
2022/05/15 07:30:40;;;;;;;4.03;0.47;;;;;;;14.77;100.00;99331.31;1709512;82;20997;-53
2022/05/15 07:33:07;;;;;;;4.20;0.70;;;;;;;14.80;100.00;99331.08;1713573;82;22147;-54
2022/05/15 07:35:33;;;;;;;1.10;0.37;;;;;;;14.83;100.00;99325.94;1711041;82;21370;-53
2022/05/15 07:38:00;;;;;;;4.25;0.37;;;;;;;14.88;100.00;99327.35;1709574;83;21343;-53
2022/05/15 07:40:26;;;;;;;7.90;0.80;;;;;;;14.97;100.00;99326.66;1712367;82;20916;-54
2022/05/15 07:42:53;;;;;;;0.90;0.33;;;;;;;15.13;100.00;99333.20;1711920;82;20951;-53
2022/05/15 07:45:20;;;;;;;2.35;0.30;;;;;;;15.27;100.00;99326.75;1712165;82;21299;-54
2022/05/15 07:47:46;;;;;;;2.40;0.30;;;;;;;15.38;100.00;99332.25;1724915;81;21377;-54
2022/05/15 07:50:15;;;;;;;1.95;0.40;;;;;;;15.47;100.00;99323.43;1727842;81;20937;-53
2022/05/15 07:52:41;;;;;;;1.85;0.60;;;;;;;15.52;100.00;99322.58;1682631;83;21401;-56
2022/05/15 07:55:08;;;;;;;1.50;0.40;;;;;;;15.57;100.00;99325.00;1731166;81;20935;-54
2022/05/15 07:57:35;;;;;;;2.65;0.30;;;;;;;15.56;100.00;99323.27;1727594;81;21351;-54
2022/05/15 08:01:20;;;;;;;2.60;0.50;;;;;;;15.58;100.00;99320.78;1775186;78;23084;-52
2022/05/15 08:03:47;;;;;;;1.30;0.40;;;;;;;15.55;100.00;99315.61;1745968;80;21009;-55
2022/05/15 08:08:53;;;;;;;1.05;0.40;;;;;;;15.57;100.00;99330.42;1607687;86;21175;-54
2022/05/15 08:11:20;;;;;;;0.93;0.33;;;;;;;15.54;100.00;99325.22;1707097;81;20999;-53
2022/05/15 08:13:47;;;;;;;4.83;1.20;;;;;;;15.52;100.00;99319.38;1714390;81;20937;-54
2022/05/15 08:16:13;;;;;;;3.55;0.42;;;;;;;15.52;100.00;99319.38;1693870;83;20970;-52
2022/05/15 08:24:09;;;;;;;2.60;0.30;;;;;;;15.70;100.00;99313.09;1707003;82;21401;-54
2022/05/15 08:26:37;;;;;;;1.32;0.40;;;;;;;15.74;100.00;99309.14;1705262;82;20994;-55
2022/05/15 08:29:03;;;;;;;1.15;0.30;;;;;;;15.80;100.00;99299.69;1707659;82;21101;-54
2022/05/15 08:31:30;;;;;;;1.47;0.30;;;;;;;15.88;100.00;99308.11;1708038;82;21809;-53
2022/05/15 08:33:57;;;;;;;1.37;0.25;;;;;;;15.98;100.00;99305.06;1704200;82;21029;-56
2022/05/15 08:36:23;;;;;;;1.00;0.20;;;;;;;16.03;100.00;99305.55;1704265;82;21098;-52
2022/05/15 08:38:50;;;;;;;1.77;0.40;;;;;;;16.01;100.00;99308.88;1701350;82;21116;-54
2022/05/15 08:41:35;;;;;;;0.80;0.30;;;;;;;15.97;100.00;99316.90;1706614;82;20946;-54
2022/05/15 08:44:12;;;;;;;1.52;0.40;;;;;;;15.90;100.00;99318.36;1704097;82;21149;-55
